createdAt,value
2019-02-06T00:01:01.941Z,8.20
2019-02-06T00:03:31.067Z,8.10
2019-02-06T00:06:01.353Z,8.00
2019-02-06T00:08:30.887Z,7.13
2019-02-06T00:11:00.212Z,7.97
2019-02-06T00:13:29.601Z,8.47
2019-02-06T00:16:00.515Z,8.93
2019-02-06T00:18:29.641Z,8.37
2019-02-06T00:20:58.921Z,7.73
2019-02-06T00:23:27.925Z,7.80
2019-02-06T00:25:57.117Z,8.07
2019-02-06T00:28:26.107Z,7.40
2019-02-06T00:30:55.107Z,6.67
2019-02-06T00:33:24.312Z,7.60
2019-02-06T00:35:53.474Z,8.43
2019-02-06T00:38:22.385Z,7.30
2019-02-06T00:40:51.138Z,8.17
2019-02-06T00:43:19.972Z,7.53
2019-02-06T00:45:49.084Z,8.33
2019-02-06T00:48:18.035Z,7.93
2019-02-06T00:50:46.922Z,8.03
2019-02-06T00:53:15.992Z,8.27
2019-02-06T00:55:44.782Z,6.47
2019-02-06T00:58:14.875Z,7.90
2019-02-06T01:00:43.769Z,7.87
2019-02-06T01:03:12.643Z,7.63
2019-02-06T01:05:41.466Z,6.67
2019-02-06T01:08:10.467Z,7.03
2019-02-06T01:10:40.028Z,7.73
2019-02-06T01:13:12.561Z,7.10
2019-02-06T01:15:41.812Z,7.93
2019-02-06T01:18:10.783Z,7.00
2019-02-06T01:20:40.436Z,7.23
2019-02-06T01:23:09.161Z,7.47
2019-02-06T01:25:38.398Z,7.57
2019-02-06T01:28:07.569Z,9.73
2019-02-06T01:30:38.206Z,6.43
2019-02-06T01:33:06.735Z,8.07
2019-02-06T01:35:35.190Z,7.50
2019-02-06T01:38:03.684Z,8.23
2019-02-06T01:40:32.152Z,7.37
2019-02-06T01:43:00.640Z,7.20
2019-02-06T01:45:29.122Z,7.63
2019-02-06T01:47:57.982Z,7.30
2019-02-06T01:50:26.459Z,7.83
2019-02-06T01:52:55.125Z,6.97
2019-02-06T01:55:23.582Z,8.10
2019-02-06T01:57:52.067Z,7.20
2019-02-06T02:00:25.952Z,8.10
2019-02-06T02:02:54.838Z,7.67
2019-02-06T02:05:23.574Z,6.90
2019-02-06T02:07:52.515Z,7.90
2019-02-06T02:10:21.800Z,6.97
2019-02-06T02:12:50.722Z,6.67
2019-02-06T02:15:20.246Z,6.97
2019-02-06T02:17:48.857Z,6.77
2019-02-06T02:20:19.996Z,7.33
2019-02-06T02:22:48.553Z,6.37
2019-02-06T02:25:17.189Z,8.60
2019-02-06T02:27:46.127Z,6.50
2019-02-06T02:30:18.094Z,7.70
2019-02-06T02:32:46.653Z,7.67
2019-02-06T02:35:15.137Z,6.83
2019-02-06T02:37:43.719Z,7.23
2019-02-06T02:40:12.920Z,7.30
2019-02-06T02:42:41.419Z,7.60
2019-02-06T02:45:16.208Z,8.50
2019-02-06T02:47:45.251Z,7.83
2019-02-06T02:50:13.886Z,7.40
2019-02-06T02:52:42.456Z,8.10
2019-02-06T02:55:14.919Z,8.93
2019-02-06T02:57:43.577Z,8.23
2019-02-06T03:00:18.508Z,7.53
2019-02-06T03:03:01.119Z,8.47
2019-02-06T03:05:31.147Z,7.87
2019-02-06T03:07:59.647Z,9.03
2019-02-06T03:10:28.103Z,7.57
2019-02-06T03:12:56.677Z,8.00
2019-02-06T03:15:25.404Z,8.67
2019-02-06T03:17:53.902Z,8.67
2019-02-06T03:20:22.434Z,8.53
2019-02-06T03:22:50.921Z,9.00
2019-02-06T03:25:19.393Z,8.37
2019-02-06T03:27:47.893Z,8.23
2019-02-06T03:30:18.694Z,8.53
2019-02-06T03:32:47.275Z,8.23
2019-02-06T03:35:16.363Z,8.13
2019-02-06T03:37:44.862Z,9.37
2019-02-06T03:40:16.131Z,9.20
2019-02-06T03:42:44.881Z,9.13
2019-02-06T03:45:14.387Z,8.10
2019-02-06T03:47:42.954Z,9.70
2019-02-06T03:50:14.691Z,9.43
2019-02-06T03:52:43.176Z,10.07
2019-02-06T03:55:12.884Z,8.60
2019-02-06T03:57:41.370Z,10.27
2019-02-06T04:00:12.949Z,10.20
2019-02-06T04:02:41.432Z,8.47
2019-02-06T04:05:11.248Z,10.20
2019-02-06T04:07:39.817Z,8.80
2019-02-06T04:10:14.500Z,9.93
2019-02-06T04:12:42.977Z,9.30
2019-02-06T04:15:12.977Z,10.57
2019-02-06T04:17:41.472Z,10.37
2019-02-06T04:20:12.485Z,11.20
2019-02-06T04:22:41.027Z,10.57
2019-02-06T04:25:10.816Z,11.03
2019-02-06T04:27:39.318Z,11.17
2019-02-06T04:30:16.543Z,12.63
2019-02-06T04:32:45.020Z,11.57
2019-02-06T04:35:14.936Z,13.97
2019-02-06T04:37:43.672Z,14.10
2019-02-06T04:40:17.552Z,12.73
2019-02-06T04:42:46.397Z,14.07
2019-02-06T04:45:19.417Z,15.43
2019-02-06T04:47:48.076Z,15.23
2019-02-06T04:50:17.987Z,14.57
2019-02-06T04:52:46.737Z,14.00
2019-02-06T04:55:17.259Z,15.33
2019-02-06T04:57:46.399Z,15.10
2019-02-06T05:00:20.775Z,15.27
2019-02-06T05:02:49.340Z,16.77
2019-02-06T05:05:17.815Z,16.53
2019-02-06T05:07:46.315Z,14.67
2019-02-06T05:10:15.629Z,15.40
2019-02-06T05:12:44.601Z,14.87
2019-02-06T05:15:15.705Z,15.37
2019-02-06T05:17:44.355Z,14.50
2019-02-06T05:20:24.620Z,15.67
2019-02-06T05:22:53.113Z,16.00
2019-02-06T05:25:21.606Z,15.13
2019-02-06T05:27:50.093Z,15.40
2019-02-06T05:30:18.675Z,15.27
2019-02-06T05:32:47.155Z,14.93
2019-02-06T05:35:15.718Z,16.17
2019-02-06T05:37:44.222Z,15.37
2019-02-06T05:40:13.502Z,15.43
2019-02-06T05:42:42.486Z,17.23
2019-02-06T05:45:12.702Z,15.37
2019-02-06T05:47:41.242Z,16.07
2019-02-06T05:50:13.014Z,16.10
2019-02-06T05:52:41.498Z,16.70
2019-02-06T05:55:10.360Z,16.23
2019-02-06T05:57:38.836Z,15.93
2019-02-06T06:00:10.564Z,16.57
2019-02-06T06:02:39.041Z,16.70
2019-02-06T06:05:07.765Z,17.83
2019-02-06T06:07:44.454Z,15.87
2019-02-06T06:10:09.507Z,16.33
2019-02-06T06:12:37.982Z,15.50
2019-02-06T06:15:08.789Z,18.23
2019-02-06T06:17:37.267Z,17.40
2019-02-06T06:20:09.200Z,18.80
2019-02-06T06:22:37.704Z,17.60
2019-02-06T06:25:08.949Z,18.67
2019-02-06T06:27:37.440Z,17.70
2019-02-06T06:30:09.848Z,17.20
2019-02-06T06:32:38.321Z,17.77
2019-02-06T06:35:09.882Z,18.90
2019-02-06T06:37:41.334Z,17.70
2019-02-06T06:40:17.737Z,19.80
2019-02-06T06:42:46.762Z,16.47
2019-02-06T06:45:18.308Z,18.53
2019-02-06T06:47:46.849Z,18.47
2019-02-06T06:50:20.745Z,18.73
2019-02-06T06:52:49.228Z,18.70
2019-02-06T06:55:18.048Z,18.93
2019-02-06T06:57:46.688Z,18.10
2019-02-06T07:00:23.782Z,17.83
2019-02-06T07:02:52.259Z,18.83
2019-02-06T07:05:20.819Z,20.23
2019-02-06T07:07:49.568Z,19.60
2019-02-06T07:10:18.319Z,20.80
2019-02-06T07:12:46.804Z,18.97
2019-02-06T07:15:18.290Z,20.23
2019-02-06T07:17:46.771Z,18.87
2019-02-06T07:20:17.995Z,18.03
2019-02-06T07:22:46.465Z,18.80
2019-02-06T07:25:17.692Z,18.83
2019-02-06T07:27:46.136Z,18.23
2019-02-06T07:30:22.939Z,18.83
2019-02-06T07:32:51.487Z,17.97
2019-02-06T07:35:19.978Z,20.03
2019-02-06T07:37:48.450Z,19.10
2019-02-06T07:40:17.657Z,18.30
2019-02-06T07:42:46.132Z,18.30
2019-02-06T07:45:16.966Z,18.97
2019-02-06T07:47:45.430Z,17.53
2019-02-06T07:50:36.364Z,19.13
2019-02-06T07:53:04.904Z,17.40
2019-02-06T07:55:33.391Z,18.23
2019-02-06T07:58:01.867Z,17.40
2019-02-06T08:00:30.696Z,16.10
2019-02-06T08:03:00.002Z,18.17
2019-02-06T08:05:28.763Z,18.07
2019-02-06T08:07:57.601Z,16.57
2019-02-06T08:10:34.756Z,16.77
2019-02-06T08:13:03.958Z,17.73
2019-02-06T08:15:32.884Z,18.57
2019-02-06T08:18:01.378Z,16.93
2019-02-06T08:20:30.000Z,17.30
2019-02-06T08:22:58.462Z,16.63
2019-02-06T08:25:27.216Z,16.53
2019-02-06T08:27:55.685Z,17.13
2019-02-06T08:30:32.651Z,17.30
2019-02-06T08:33:01.154Z,18.10
2019-02-06T08:35:30.043Z,17.53
2019-02-06T08:37:58.525Z,17.33
2019-02-06T08:40:29.167Z,18.30
2019-02-06T08:42:57.632Z,15.67
2019-02-06T08:45:26.130Z,16.80
2019-02-06T08:47:56.010Z,17.27
2019-02-06T08:50:25.050Z,15.30
2019-02-06T08:52:53.794Z,16.53
2019-02-06T08:55:30.708Z,15.30
2019-02-06T08:57:59.461Z,16.73
2019-02-06T09:00:31.010Z,15.07
2019-02-06T09:02:59.806Z,15.00
2019-02-06T09:05:28.770Z,15.07
2019-02-06T09:07:57.662Z,14.47
2019-02-06T09:10:28.300Z,14.33
2019-02-06T09:12:57.901Z,15.53
2019-02-06T09:15:27.526Z,14.57
2019-02-06T09:17:56.530Z,13.93
2019-02-06T09:20:27.244Z,14.27
2019-02-06T09:22:56.054Z,14.77
2019-02-06T09:25:26.192Z,14.37
2019-02-06T09:27:55.409Z,14.53
2019-02-06T09:30:32.937Z,13.60
2019-02-06T09:33:01.998Z,13.90
2019-02-06T09:35:30.492Z,13.07
2019-02-06T09:37:59.036Z,12.47
2019-02-06T09:40:29.473Z,13.93
2019-02-06T09:42:57.953Z,13.50
2019-02-06T09:45:26.788Z,13.00
2019-02-06T09:47:55.331Z,13.33
2019-02-06T09:50:32.751Z,12.77
2019-02-06T09:53:01.233Z,12.53
2019-02-06T09:55:30.039Z,12.57
2019-02-06T09:57:58.603Z,14.13
2019-02-06T10:00:31.950Z,13.77
2019-02-06T10:03:01.098Z,12.70
2019-02-06T10:05:30.292Z,13.07
2019-02-06T10:07:59.135Z,12.53
2019-02-06T10:10:28.334Z,11.87
2019-02-06T10:12:57.092Z,13.10
2019-02-06T10:15:33.880Z,12.17
2019-02-06T10:18:02.923Z,11.67
2019-02-06T10:20:36.975Z,13.30
2019-02-06T10:23:06.414Z,11.03
2019-02-06T10:25:35.048Z,11.13
2019-02-06T10:28:03.779Z,12.00
2019-02-06T10:30:43.906Z,10.70
2019-02-06T10:33:12.758Z,10.70
2019-02-06T10:35:41.236Z,11.07
2019-02-06T10:38:10.376Z,11.77
2019-02-06T10:40:39.192Z,11.43
2019-02-06T10:43:07.824Z,11.00
2019-02-06T10:45:36.754Z,11.23
2019-02-06T10:48:06.380Z,11.07
2019-02-06T10:50:49.078Z,10.20
2019-02-06T10:53:17.564Z,9.70
2019-02-06T10:55:46.192Z,10.10
2019-02-06T10:58:14.854Z,9.00
2019-02-06T11:00:46.744Z,9.30
2019-02-06T11:03:15.323Z,9.93
2019-02-06T11:05:43.955Z,7.90
2019-02-06T11:08:12.872Z,8.53
2019-02-06T11:10:41.323Z,7.70
2019-02-06T11:13:09.807Z,8.43
2019-02-06T11:15:38.282Z,8.10
2019-02-06T11:18:07.038Z,7.00
2019-02-06T11:20:37.939Z,7.83
2019-02-06T11:23:07.681Z,7.37
2019-02-06T11:25:36.678Z,8.67
2019-02-06T11:28:06.619Z,8.27
2019-02-06T11:30:37.538Z,7.47
2019-02-06T11:33:06.946Z,7.87
2019-02-06T11:35:35.562Z,9.07
2019-02-06T11:38:04.921Z,7.80
2019-02-06T11:40:33.579Z,9.00
2019-02-06T11:43:02.230Z,7.27
2019-02-06T11:45:34.026Z,7.27
2019-02-06T11:48:02.582Z,7.07
2019-02-06T11:50:35.569Z,6.57
2019-02-06T11:53:04.793Z,6.87
2019-02-06T11:55:33.325Z,6.33
2019-02-06T11:58:01.833Z,6.97
2019-02-06T12:00:35.019Z,6.37
2019-02-06T12:03:03.682Z,6.67
2019-02-06T12:05:32.216Z,6.17
2019-02-06T12:08:00.705Z,6.20
2019-02-06T12:10:29.233Z,6.40
2019-02-06T12:12:57.726Z,6.13
2019-02-06T12:15:26.456Z,6.60
2019-02-06T12:17:54.939Z,6.93
2019-02-06T12:20:24.884Z,6.47
2019-02-06T12:22:53.598Z,5.70
2019-02-06T12:25:22.295Z,6.40
2019-02-06T12:27:52.619Z,6.17
2019-02-06T12:30:24.562Z,5.40
2019-02-06T12:32:53.043Z,5.63
2019-02-06T12:35:21.676Z,4.93
2019-02-06T12:37:50.226Z,5.77
2019-02-06T12:40:21.569Z,5.73
2019-02-06T12:42:49.710Z,5.50
2019-02-06T12:45:19.929Z,6.07
2019-02-06T12:47:48.966Z,6.13
2019-02-06T12:50:19.835Z,5.23
2019-02-06T12:52:48.372Z,5.77
2019-02-06T12:55:25.522Z,5.87
2019-02-06T12:57:53.985Z,5.97
2019-02-06T13:00:30.742Z,6.03
2019-02-06T13:03:00.218Z,6.00
2019-02-06T13:05:29.631Z,5.23
2019-02-06T13:07:58.102Z,4.93
2019-02-06T13:10:34.125Z,4.63
2019-02-06T13:12:56.859Z,4.73
2019-02-06T13:15:25.361Z,5.73
2019-02-06T13:17:54.196Z,6.10
2019-02-06T13:20:25.988Z,6.63
2019-02-06T13:22:54.722Z,6.00
2019-02-06T13:25:23.302Z,6.30
2019-02-06T13:27:51.791Z,5.87
2019-02-06T13:30:23.158Z,5.87
2019-02-06T13:32:52.101Z,7.23
2019-02-06T13:35:20.601Z,5.93
2019-02-06T13:37:49.404Z,6.73
2019-02-06T13:40:20.567Z,6.20
2019-02-06T13:42:49.204Z,5.50
2019-02-06T13:45:20.735Z,5.90
2019-02-06T13:47:49.748Z,7.10
2019-02-06T13:50:22.050Z,5.73
2019-02-06T13:52:50.173Z,6.93
2019-02-06T13:55:19.110Z,5.40
2019-02-06T13:57:47.904Z,5.77
2019-02-06T14:00:22.378Z,6.73
2019-02-06T14:02:51.678Z,6.77
2019-02-06T14:05:23.300Z,7.50
2019-02-06T14:07:52.536Z,6.97
2019-02-06T14:10:24.262Z,6.87
2019-02-06T14:12:52.979Z,6.37
2019-02-06T14:15:24.845Z,7.27
2019-02-06T14:17:53.472Z,6.90
2019-02-06T14:20:23.001Z,6.63
2019-02-06T14:22:54.553Z,6.43
2019-02-06T14:25:43.505Z,6.60
2019-02-06T14:28:15.037Z,8.17
2019-02-06T14:30:55.423Z,7.03
2019-02-06T14:33:42.001Z,7.37
2019-02-06T14:36:34.100Z,7.60
2019-02-06T14:39:23.841Z,7.57
2019-02-06T14:42:03.684Z,6.60
2019-02-06T14:45:08.703Z,11.05
2019-02-06T14:47:51.482Z,8.10
2019-02-06T14:50:38.025Z,7.27
2019-02-06T14:53:24.470Z,8.50
2019-02-06T14:56:01.947Z,7.47
2019-02-06T14:58:39.242Z,6.67
2019-02-06T15:01:10.861Z,8.30
2019-02-06T15:04:16.033Z,8.07
2019-02-06T15:06:50.464Z,6.23
2019-02-06T15:09:40.068Z,8.13
2019-02-06T15:12:36.014Z,7.47
2019-02-06T15:15:19.372Z,7.23
2019-02-06T15:17:53.487Z,7.27
2019-02-06T15:20:30.928Z,6.83
2019-02-06T15:23:32.321Z,7.70
2019-02-06T15:25:58.464Z,7.93
2019-02-06T15:28:52.869Z,7.47
2019-02-06T15:31:45.581Z,7.90
2019-02-06T15:34:25.658Z,6.70
2019-02-06T15:37:08.915Z,6.37
2019-02-06T15:40:04.089Z,7.60
2019-02-06T15:42:47.229Z,6.60
2019-02-06T15:45:39.640Z,7.10
2019-02-06T15:48:26.007Z,6.97
2019-02-06T15:51:12.376Z,7.53
2019-02-06T15:53:48.403Z,7.43
2019-02-06T15:56:19.821Z,7.43
2019-02-06T15:58:53.883Z,7.30
2019-02-06T16:01:25.450Z,6.93
2019-02-06T16:04:22.602Z,7.10
2019-02-06T16:07:13.086Z,7.30
2019-02-06T16:09:59.743Z,6.70
2019-02-06T16:12:55.424Z,7.87
2019-02-06T16:15:26.946Z,7.27
2019-02-06T16:18:18.981Z,7.40
2019-02-06T16:23:58.410Z,7.13
2019-02-06T16:26:42.100Z,8.10
2019-02-06T16:29:31.721Z,7.40
2019-02-06T16:32:19.934Z,7.20
2019-02-06T16:34:54.349Z,8.00
2019-02-06T16:37:31.612Z,8.53
2019-02-06T16:40:21.027Z,6.47
2019-02-06T16:43:01.371Z,8.23
2019-02-06T16:45:35.887Z,7.90
2019-02-06T16:48:19.440Z,7.97
2019-02-06T16:51:02.851Z,8.13
2019-02-06T16:53:37.076Z,7.20
2019-02-06T16:56:17.434Z,6.77
2019-02-06T16:59:00.496Z,8.20
2019-02-06T17:01:37.869Z,8.43
2019-02-06T17:04:29.001Z,8.57
2019-02-06T17:07:09.358Z,7.40
2019-02-06T17:09:53.518Z,7.10
2019-02-06T17:12:40.181Z,7.70
2019-02-06T17:15:29.897Z,8.37
2019-02-06T17:18:10.286Z,8.90
2019-02-06T17:20:56.418Z,8.33
2019-02-06T17:23:37.296Z,8.83
2019-02-06T17:26:11.585Z,7.73
2019-02-06T17:29:05.848Z,7.43
2019-02-06T17:32:04.481Z,9.20
2019-02-06T17:37:51.722Z,9.57
2019-02-06T17:40:29.048Z,8.87
2019-02-06T17:43:26.438Z,9.03
2019-02-06T17:46:16.067Z,8.77
2019-02-06T17:49:01.910Z,8.63
2019-02-06T17:52:05.048Z,9.37
2019-02-06T17:54:51.883Z,7.90
2019-02-06T17:57:20.430Z,8.00
2019-02-06T17:59:48.926Z,8.87
2019-02-06T18:02:17.772Z,7.67
2019-02-06T18:04:46.318Z,9.10
2019-02-06T18:07:14.794Z,9.57
2019-02-06T18:09:43.243Z,9.20
2019-02-06T18:12:11.797Z,8.70
2019-02-06T18:14:40.275Z,8.83
2019-02-06T18:17:08.831Z,9.03
2019-02-06T18:19:38.210Z,10.50
2019-02-06T18:22:07.562Z,10.33
2019-02-06T18:24:36.019Z,9.70
2019-02-06T18:27:05.447Z,9.30
2019-02-06T18:29:33.904Z,9.10
2019-02-06T18:32:02.388Z,9.00
2019-02-06T18:34:30.927Z,8.70
2019-02-06T18:36:59.923Z,7.97
2019-02-06T18:39:28.390Z,8.97
2019-02-06T18:41:57.025Z,7.73
2019-02-06T18:44:25.654Z,8.80
2019-02-06T18:46:54.579Z,8.20
2019-02-06T18:49:23.044Z,9.00
2019-02-06T18:51:51.361Z,8.03
2019-02-06T18:54:19.910Z,7.83
2019-02-06T18:56:48.614Z,8.93
2019-02-06T18:59:17.076Z,9.00
2019-02-06T19:01:45.554Z,9.60
2019-02-06T19:04:14.274Z,7.97
2019-02-06T19:06:42.873Z,7.70
2019-02-06T19:09:12.224Z,8.47
2019-02-06T19:11:40.883Z,8.53
2019-02-06T19:14:09.702Z,7.30
2019-02-06T19:16:38.816Z,8.07
2019-02-06T19:19:07.455Z,7.67
2019-02-06T19:21:35.932Z,7.20
2019-02-06T19:24:04.976Z,8.40
2019-02-06T19:26:33.443Z,8.67
2019-02-06T19:29:01.940Z,8.37
2019-02-06T19:31:30.406Z,8.63
2019-02-06T19:33:58.904Z,8.63
2019-02-06T19:36:27.459Z,7.37
2019-02-06T19:38:55.956Z,7.60
2019-02-06T19:41:24.426Z,7.17
2019-02-06T19:43:52.918Z,8.57
2019-02-06T19:46:21.393Z,7.23
2019-02-06T19:48:49.880Z,8.00
2019-02-06T19:51:18.407Z,7.70
2019-02-06T19:53:47.074Z,7.70
2019-02-06T19:56:15.571Z,7.87
2019-02-06T19:58:44.055Z,7.03
2019-02-06T20:01:12.590Z,8.03
2019-02-06T20:03:41.085Z,8.10
2019-02-06T20:06:11.194Z,8.20
2019-02-06T20:08:39.682Z,7.20
2019-02-06T20:11:08.151Z,7.90
2019-02-06T20:13:36.919Z,8.23
2019-02-06T20:16:05.450Z,8.13
2019-02-06T20:18:33.940Z,7.10
2019-02-06T20:21:02.391Z,8.27
2019-02-06T20:23:30.877Z,8.17
2019-02-06T20:25:59.347Z,8.00
2019-02-06T20:28:27.843Z,8.33
2019-02-06T20:30:56.824Z,6.93
2019-02-06T20:33:25.305Z,7.43
2019-02-06T20:35:53.764Z,7.47
2019-02-06T20:38:22.257Z,7.97
2019-02-06T20:40:50.727Z,7.50
2019-02-06T20:43:22.200Z,7.07
2019-02-06T20:45:49.401Z,7.57
2019-02-06T20:48:18.065Z,7.30
2019-02-06T20:50:46.620Z,7.53
2019-02-06T20:53:15.109Z,7.97
2019-02-06T20:55:43.580Z,12.10
2019-02-06T20:58:12.081Z,11.07
2019-02-06T21:00:42.375Z,9.90
2019-02-06T21:03:10.873Z,9.13
2019-02-06T21:05:39.440Z,9.27
2019-02-06T21:08:07.924Z,8.87
2019-02-06T21:10:36.888Z,8.53
2019-02-06T21:13:06.718Z,7.13
2019-02-06T21:15:35.617Z,6.67
2019-02-06T21:18:23.727Z,8.67
2019-02-06T21:20:52.278Z,6.70
2019-02-06T21:23:20.825Z,7.47
2019-02-06T21:25:49.329Z,6.67
2019-02-06T21:28:17.806Z,7.00
2019-02-06T21:30:47.043Z,7.63
2019-02-06T21:33:15.644Z,6.97
2019-02-06T21:35:44.122Z,7.00
2019-02-06T21:38:12.587Z,7.00
2019-02-06T21:40:41.071Z,8.33
2019-02-06T21:43:09.607Z,7.30
2019-02-06T21:45:38.087Z,6.93
2019-02-06T21:48:06.888Z,7.00
2019-02-06T21:50:35.767Z,7.53
2019-02-06T21:53:04.486Z,6.97
2019-02-06T21:55:33.036Z,7.70
2019-02-06T21:58:01.585Z,7.20
2019-02-06T22:00:36.069Z,7.60
2019-02-06T22:03:05.100Z,7.00
2019-02-06T22:05:33.864Z,6.83
2019-02-06T22:08:02.423Z,7.37
2019-02-06T22:10:31.159Z,6.93
2019-02-06T22:12:59.643Z,7.87
2019-02-06T22:15:32.535Z,6.97
2019-02-06T22:18:01.182Z,8.17
2019-02-06T22:20:30.186Z,8.00
2019-02-06T22:22:58.650Z,7.83
2019-02-06T22:25:27.211Z,6.47
2019-02-06T22:27:55.752Z,7.67
2019-02-06T22:30:29.439Z,8.10
2019-02-06T22:32:58.249Z,6.43
2019-02-06T22:35:27.160Z,7.00
2019-02-06T22:37:55.860Z,7.57
2019-02-06T22:40:25.780Z,7.47
2019-02-06T22:42:54.698Z,8.40
2019-02-06T22:45:27.653Z,7.93
2019-02-06T22:47:56.162Z,7.80
2019-02-06T22:50:27.295Z,7.13
2019-02-06T22:52:56.136Z,8.13
2019-02-06T22:55:24.857Z,8.03
2019-02-06T22:57:53.718Z,7.83
2019-02-06T23:00:47.156Z,8.03
2019-02-06T23:03:30.344Z,6.47
2019-02-06T23:05:58.827Z,7.43
2019-02-06T23:08:27.381Z,7.10
2019-02-06T23:10:56.502Z,6.97
2019-02-06T23:13:25.051Z,8.07
2019-02-06T23:15:53.841Z,7.73
2019-02-06T23:18:22.485Z,7.17
2019-02-06T23:20:50.943Z,7.40
2019-02-06T23:23:20.589Z,7.23
2019-02-06T23:25:49.063Z,7.57
2019-02-06T23:28:17.553Z,6.83
2019-02-06T23:30:46.216Z,6.80
2019-02-06T23:33:15.580Z,6.90
2019-02-06T23:35:44.048Z,7.50
2019-02-06T23:38:12.539Z,6.67
2019-02-06T23:40:41.341Z,6.70
2019-02-06T23:43:09.912Z,7.30
2019-02-06T23:45:39.486Z,8.00
2019-02-06T23:48:08.046Z,7.07
2019-02-06T23:50:36.514Z,7.43
2019-02-06T23:53:05.437Z,8.03
2019-02-06T23:55:33.912Z,6.90
2019-02-06T23:58:02.668Z,7.53
